Overview Statistics Trail Chart Weather Telemetry Raw packets
 

This is the latest recevied weather packets stored in our database for station/object IU7URP-17. If no packets are shown the sender has not sent any weather packets the latest 10 day(s).

<< 1 2 3 4 5 6 7 >>
Time Temp. Humidity Pressure Rain* Wind** Luminosity Snow
1788560959 22.78° C 76% 1019.6 hPa - - - -
1788559755 22.78° C 75% 1019.6 hPa - - - -
1788558551 22.78° C 73% 1019.6 hPa - - - -
1788557347 23.33° C 71% 1019.6 hPa - - - -
1788556143 23.33° C 70% 1019.6 hPa - - - -
1788554939 23.33° C 68% 1019.4 hPa - - - -
1788553735 23.89° C 67% 1019.4 hPa - - - -
1788552531 23.89° C 65% 1019.3 hPa - - - -
1788551327 24.44° C 64% 1019.3 hPa - - - -
1788550123 24.44° C 63% 1019.4 hPa - - - -
1788548911 24.44° C 60% 1019.2 hPa - - - -
1788547707 25° C 58% 1019.2 hPa - - - -
1788546503 25° C 55% 1018.9 hPa - - - -
1788545299 25.56° C 54% 1018.4 hPa - - - -
1788542891 26.11° C 51% 1018.1 hPa - - - -
1788541687 27.22° C 46% 1017.9 hPa - - - -
1788540482 27.22° C 42% 1017.6 hPa - - - -
1788539278 28.33° C 39% 1017.6 hPa - - - -
1788536869 29.44° C 34% 1017.5 hPa - - - -
1788535665 30° C 31% 1017.4 hPa - - - -
1788534461 30° C 32% 1017.3 hPa - - - -
1788533257 31.11° C 31% 1017.3 hPa - - - -
1788532053 30.56° C 33% 1017.2 hPa - - - -
1788530849 31.67° C 29% 1017.1 hPa - - - -
1788529645 32.78° C 23% 1016.9 hPa - - - -

* Rain since midnight (hover to see other rain measurements)
** Current wind speed in m/s (hover to see current wind gust speed)